sensor_id;sensor_type;location;lat;lon;timestamp;P1;durP1;ratioP1;P2;durP2;ratioP2
1603;SDS011;795;49.296;11.348;2022-07-04T00:00:48;2.40;;;2.20;;
1603;SDS011;795;49.296;11.348;2022-07-04T00:03:14;3.17;;;2.73;;
1603;SDS011;795;49.296;11.348;2022-07-04T00:05:41;3.10;;;2.83;;
1603;SDS011;795;49.296;11.348;2022-07-04T00:08:09;2.80;;;2.47;;
1603;SDS011;795;49.296;11.348;2022-07-04T00:10:36;3.10;;;2.67;;
1603;SDS011;795;49.296;11.348;2022-07-04T00:13:03;4.13;;;2.60;;
1603;SDS011;795;49.296;11.348;2022-07-04T00:15:30;2.93;;;2.53;;
1603;SDS011;795;49.296;11.348;2022-07-04T00:17:57;3.27;;;2.40;;
1603;SDS011;795;49.296;11.348;2022-07-04T00:20:24;3.73;;;2.50;;
1603;SDS011;795;49.296;11.348;2022-07-04T00:22:51;5.17;;;2.30;;
1603;SDS011;795;49.296;11.348;2022-07-04T00:25:18;3.63;;;2.50;;
1603;SDS011;795;49.296;11.348;2022-07-04T00:27:45;2.70;;;2.50;;
1603;SDS011;795;49.296;11.348;2022-07-04T00:30:12;4.20;;;2.37;;
1603;SDS011;795;49.296;11.348;2022-07-04T00:32:40;2.30;;;2.13;;
1603;SDS011;795;49.296;11.348;2022-07-04T00:35:07;3.77;;;2.73;;
1603;SDS011;795;49.296;11.348;2022-07-04T00:37:34;2.73;;;2.50;;
1603;SDS011;795;49.296;11.348;2022-07-04T00:40:01;3.30;;;2.40;;
1603;SDS011;795;49.296;11.348;2022-07-04T00:42:29;4.10;;;2.20;;
1603;SDS011;795;49.296;11.348;2022-07-04T00:44:56;3.37;;;2.80;;
1603;SDS011;795;49.296;11.348;2022-07-04T00:47:23;2.50;;;2.30;;
1603;SDS011;795;49.296;11.348;2022-07-04T00:49:50;2.57;;;2.37;;
1603;SDS011;795;49.296;11.348;2022-07-04T00:52:17;2.60;;;2.40;;
1603;SDS011;795;49.296;11.348;2022-07-04T00:54:46;2.87;;;2.67;;
1603;SDS011;795;49.296;11.348;2022-07-04T00:57:14;2.80;;;2.50;;
1603;SDS011;795;49.296;11.348;2022-07-04T00:59:41;2.40;;;1.70;;
1603;SDS011;795;49.296;11.348;2022-07-04T01:02:08;2.83;;;2.53;;
1603;SDS011;795;49.296;11.348;2022-07-04T01:04:35;2.23;;;2.03;;
1603;SDS011;795;49.296;11.348;2022-07-04T01:07:03;3.50;;;1.70;;
1603;SDS011;795;49.296;11.348;2022-07-04T01:09:32;2.17;;;1.93;;
1603;SDS011;795;49.296;11.348;2022-07-04T01:12:00;2.07;;;1.90;;
1603;SDS011;795;49.296;11.348;2022-07-04T01:14:27;2.90;;;1.67;;
1603;SDS011;795;49.296;11.348;2022-07-04T01:16:54;1.93;;;1.73;;
1603;SDS011;795;49.296;11.348;2022-07-04T01:19:21;3.37;;;2.13;;
1603;SDS011;795;49.296;11.348;2022-07-04T01:21:48;5.53;;;1.60;;
1603;SDS011;795;49.296;11.348;2022-07-04T01:24:15;8.40;;;2.50;;
1603;SDS011;795;49.296;11.348;2022-07-04T01:26:42;3.07;;;2.13;;
1603;SDS011;795;49.296;11.348;2022-07-04T01:29:10;2.10;;;1.87;;
1603;SDS011;795;49.296;11.348;2022-07-04T01:31:37;4.80;;;1.90;;
1603;SDS011;795;49.296;11.348;2022-07-04T01:34:04;2.40;;;2.20;;
1603;SDS011;795;49.296;11.348;2022-07-04T01:36:31;2.70;;;2.50;;
1603;SDS011;795;49.296;11.348;2022-07-04T01:38:57;2.20;;;2.00;;
1603;SDS011;795;49.296;11.348;2022-07-04T01:41:37;2.40;;;2.17;;
1603;SDS011;795;49.296;11.348;2022-07-04T01:44:04;9.40;;;1.83;;
1603;SDS011;795;49.296;11.348;2022-07-04T01:46:31;5.00;;;2.20;;
1603;SDS011;795;49.296;11.348;2022-07-04T01:48:59;3.63;;;2.20;;
1603;SDS011;795;49.296;11.348;2022-07-04T01:51:26;2.07;;;1.97;;
1603;SDS011;795;49.296;11.348;2022-07-04T01:53:53;2.30;;;2.10;;
1603;SDS011;795;49.296;11.348;2022-07-04T01:56:20;2.50;;;2.30;;
1603;SDS011;795;49.296;11.348;2022-07-04T01:58:47;2.27;;;2.00;;
1603;SDS011;795;49.296;11.348;2022-07-04T02:01:14;2.53;;;2.33;;
1603;SDS011;795;49.296;11.348;2022-07-04T02:03:57;2.80;;;1.97;;
1603;SDS011;795;49.296;11.348;2022-07-04T02:06:27;3.40;;;2.50;;
1603;SDS011;795;49.296;11.348;2022-07-04T02:08:55;2.30;;;2.10;;
1603;SDS011;795;49.296;11.348;2022-07-04T02:11:41;3.27;;;2.10;;
1603;SDS011;795;49.296;11.348;2022-07-04T02:14:30;1.70;;;1.60;;
1603;SDS011;795;49.296;11.348;2022-07-04T02:16:59;3.10;;;2.27;;
1603;SDS011;795;49.296;11.348;2022-07-04T02:19:27;4.40;;;2.23;;
1603;SDS011;795;49.296;11.348;2022-07-04T02:21:54;3.60;;;2.60;;
1603;SDS011;795;49.296;11.348;2022-07-04T02:24:21;4.30;;;2.13;;
1603;SDS011;795;49.296;11.348;2022-07-04T02:26:48;2.80;;;2.10;;
1603;SDS011;795;49.296;11.348;2022-07-04T02:29:16;2.10;;;2.00;;
1603;SDS011;795;49.296;11.348;2022-07-04T02:31:43;2.60;;;2.30;;
1603;SDS011;795;49.296;11.348;2022-07-04T02:34:10;4.17;;;2.73;;
1603;SDS011;795;49.296;11.348;2022-07-04T02:36:37;2.10;;;2.00;;
1603;SDS011;795;49.296;11.348;2022-07-04T02:39:05;2.50;;;2.30;;
1603;SDS011;795;49.296;11.348;2022-07-04T02:41:32;3.10;;;2.23;;
1603;SDS011;795;49.296;11.348;2022-07-04T02:44:00;2.33;;;2.23;;
1603;SDS011;795;49.296;11.348;2022-07-04T02:46:27;3.07;;;2.80;;
1603;SDS011;795;49.296;11.348;2022-07-04T02:48:55;2.20;;;2.00;;
1603;SDS011;795;49.296;11.348;2022-07-04T02:51:22;2.00;;;1.90;;
1603;SDS011;795;49.296;11.348;2022-07-04T02:53:49;3.00;;;2.33;;
1603;SDS011;795;49.296;11.348;2022-07-04T02:56:16;2.13;;;2.03;;
1603;SDS011;795;49.296;11.348;2022-07-04T02:58:43;2.43;;;2.33;;
1603;SDS011;795;49.296;11.348;2022-07-04T03:01:10;3.23;;;2.23;;
1603;SDS011;795;49.296;11.348;2022-07-04T03:03:40;2.73;;;1.93;;
1603;SDS011;795;49.296;11.348;2022-07-04T03:06:08;3.10;;;2.33;;
1603;SDS011;795;49.296;11.348;2022-07-04T03:08:36;3.30;;;2.20;;
1603;SDS011;795;49.296;11.348;2022-07-04T03:11:04;3.30;;;2.50;;
1603;SDS011;795;49.296;11.348;2022-07-04T03:13:32;2.23;;;2.13;;
1603;SDS011;795;49.296;11.348;2022-07-04T03:15:59;2.40;;;2.20;;
1603;SDS011;795;49.296;11.348;2022-07-04T03:18:26;2.90;;;2.43;;
1603;SDS011;795;49.296;11.348;2022-07-04T03:20:53;3.33;;;2.43;;
1603;SDS011;795;49.296;11.348;2022-07-04T03:23:20;3.63;;;2.50;;
1603;SDS011;795;49.296;11.348;2022-07-04T03:25:48;3.63;;;2.70;;
1603;SDS011;795;49.296;11.348;2022-07-04T03:28:15;2.50;;;2.30;;
1603;SDS011;795;49.296;11.348;2022-07-04T03:30:42;2.77;;;2.13;;
1603;SDS011;795;49.296;11.348;2022-07-04T03:33:09;3.83;;;2.70;;
1603;SDS011;795;49.296;11.348;2022-07-04T03:35:36;2.80;;;2.60;;
1603;SDS011;795;49.296;11.348;2022-07-04T03:38:03;3.10;;;2.67;;
1603;SDS011;795;49.296;11.348;2022-07-04T03:40:30;8.50;;;2.50;;
1603;SDS011;795;49.296;11.348;2022-07-04T03:42:58;4.23;;;2.97;;
1603;SDS011;795;49.296;11.348;2022-07-04T03:45:25;3.60;;;2.80;;
1603;SDS011;795;49.296;11.348;2022-07-04T03:47:53;3.03;;;2.63;;
1603;SDS011;795;49.296;11.348;2022-07-04T03:50:20;2.67;;;2.47;;
1603;SDS011;795;49.296;11.348;2022-07-04T03:52:47;2.50;;;2.30;;
1603;SDS011;795;49.296;11.348;2022-07-04T03:55:14;2.70;;;2.50;;
1603;SDS011;795;49.296;11.348;2022-07-04T03:57:41;2.47;;;2.27;;
1603;SDS011;795;49.296;11.348;2022-07-04T04:00:08;3.67;;;2.40;;
1603;SDS011;795;49.296;11.348;2022-07-04T04:02:36;3.00;;;2.57;;
1603;SDS011;795;49.296;11.348;2022-07-04T04:05:09;2.17;;;2.07;;
1603;SDS011;795;49.296;11.348;2022-07-04T04:07:57;2.77;;;2.57;;
1603;SDS011;795;49.296;11.348;2022-07-04T04:10:27;2.73;;;2.53;;
1603;SDS011;795;49.296;11.348;2022-07-04T04:12:57;2.27;;;1.90;;
1603;SDS011;795;49.296;11.348;2022-07-04T04:15:24;3.10;;;2.10;;
1603;SDS011;795;49.296;11.348;2022-07-04T04:17:52;2.80;;;2.00;;
1603;SDS011;795;49.296;11.348;2022-07-04T04:20:19;2.57;;;2.37;;
1603;SDS011;795;49.296;11.348;2022-07-04T04:22:46;3.73;;;2.33;;
1603;SDS011;795;49.296;11.348;2022-07-04T04:25:13;2.70;;;2.57;;
1603;SDS011;795;49.296;11.348;2022-07-04T04:27:40;2.53;;;2.37;;
1603;SDS011;795;49.296;11.348;2022-07-04T04:30:07;2.87;;;2.60;;
1603;SDS011;795;49.296;11.348;2022-07-04T04:32:34;3.03;;;2.73;;
1603;SDS011;795;49.296;11.348;2022-07-04T04:35:02;3.00;;;2.80;;
1603;SDS011;795;49.296;11.348;2022-07-04T04:37:29;2.70;;;2.50;;
1603;SDS011;795;49.296;11.348;2022-07-04T04:39:56;3.60;;;2.50;;
1603;SDS011;795;49.296;11.348;2022-07-04T04:42:23;3.57;;;3.23;;
1603;SDS011;795;49.296;11.348;2022-07-04T04:44:50;2.90;;;2.70;;
1603;SDS011;795;49.296;11.348;2022-07-04T04:47:18;2.60;;;2.40;;
1603;SDS011;795;49.296;11.348;2022-07-04T04:49:45;2.50;;;2.30;;
1603;SDS011;795;49.296;11.348;2022-07-04T04:52:13;3.37;;;3.10;;
1603;SDS011;795;49.296;11.348;2022-07-04T04:54:40;3.27;;;2.93;;
1603;SDS011;795;49.296;11.348;2022-07-04T04:57:08;3.07;;;2.80;;
1603;SDS011;795;49.296;11.348;2022-07-04T04:59:35;3.80;;;2.60;;
1603;SDS011;795;49.296;11.348;2022-07-04T05:02:02;2.83;;;2.60;;
1603;SDS011;795;49.296;11.348;2022-07-04T05:04:30;5.10;;;2.63;;
1603;SDS011;795;49.296;11.348;2022-07-04T05:06:57;2.70;;;2.50;;
1603;SDS011;795;49.296;11.348;2022-07-04T05:09:24;4.07;;;2.47;;
1603;SDS011;795;49.296;11.348;2022-07-04T05:11:51;2.63;;;2.40;;
1603;SDS011;795;49.296;11.348;2022-07-04T05:14:18;4.90;;;2.60;;
1603;SDS011;795;49.296;11.348;2022-07-04T05:16:46;2.63;;;2.43;;
1603;SDS011;795;49.296;11.348;2022-07-04T05:19:13;3.80;;;2.60;;
1603;SDS011;795;49.296;11.348;2022-07-04T05:21:40;4.77;;;2.43;;
1603;SDS011;795;49.296;11.348;2022-07-04T05:24:07;3.73;;;2.80;;
1603;SDS011;795;49.296;11.348;2022-07-04T05:26:33;2.20;;;2.10;;
1603;SDS011;795;49.296;11.348;2022-07-04T05:29:00;4.17;;;2.53;;
1603;SDS011;795;49.296;11.348;2022-07-04T05:31:28;2.20;;;2.00;;
1603;SDS011;795;49.296;11.348;2022-07-04T05:33:55;2.30;;;2.10;;
1603;SDS011;795;49.296;11.348;2022-07-04T05:36:24;2.97;;;2.53;;
1603;SDS011;795;49.296;11.348;2022-07-04T05:38:55;2.53;;;2.33;;
1603;SDS011;795;49.296;11.348;2022-07-04T05:41:24;4.73;;;2.43;;
1603;SDS011;795;49.296;11.348;2022-07-04T05:43:52;2.00;;;1.90;;
1603;SDS011;795;49.296;11.348;2022-07-04T05:46:24;2.93;;;2.73;;
1603;SDS011;795;49.296;11.348;2022-07-04T05:48:52;2.60;;;2.40;;
1603;SDS011;795;49.296;11.348;2022-07-04T05:51:19;3.77;;;2.97;;
1603;SDS011;795;49.296;11.348;2022-07-04T05:53:46;2.60;;;2.23;;
1603;SDS011;795;49.296;11.348;2022-07-04T05:56:13;4.00;;;2.20;;
1603;SDS011;795;49.296;11.348;2022-07-04T05:58:40;3.30;;;2.27;;
1603;SDS011;795;49.296;11.348;2022-07-04T06:01:07;2.10;;;2.00;;
1603;SDS011;795;49.296;11.348;2022-07-04T06:03:35;4.63;;;2.80;;
1603;SDS011;795;49.296;11.348;2022-07-04T06:06:04;2.97;;;2.70;;
1603;SDS011;795;49.296;11.348;2022-07-04T06:08:32;7.87;;;2.57;;
1603;SDS011;795;49.296;11.348;2022-07-04T06:10:59;4.17;;;2.37;;
1603;SDS011;795;49.296;11.348;2022-07-04T06:13:27;1.93;;;1.83;;
1603;SDS011;795;49.296;11.348;2022-07-04T06:15:54;2.60;;;2.40;;
1603;SDS011;795;49.296;11.348;2022-07-04T06:18:22;2.40;;;1.93;;
1603;SDS011;795;49.296;11.348;2022-07-04T06:20:50;3.10;;;2.80;;
1603;SDS011;795;49.296;11.348;2022-07-04T06:23:17;3.73;;;2.37;;
1603;SDS011;795;49.296;11.348;2022-07-04T06:25:44;7.30;;;2.60;;
1603;SDS011;795;49.296;11.348;2022-07-04T06:28:11;3.50;;;2.60;;
1603;SDS011;795;49.296;11.348;2022-07-04T06:30:59;2.67;;;2.47;;
1603;SDS011;795;49.296;11.348;2022-07-04T06:33:26;6.63;;;3.00;;
1603;SDS011;795;49.296;11.348;2022-07-04T06:35:53;6.20;;;2.53;;
1603;SDS011;795;49.296;11.348;2022-07-04T06:38:24;4.00;;;2.90;;
1603;SDS011;795;49.296;11.348;2022-07-04T06:40:55;2.67;;;2.43;;
1603;SDS011;795;49.296;11.348;2022-07-04T06:43:25;2.40;;;2.10;;
1603;SDS011;795;49.296;11.348;2022-07-04T06:45:52;2.87;;;2.67;;
1603;SDS011;795;49.296;11.348;2022-07-04T06:48:21;4.00;;;2.30;;
1603;SDS011;795;49.296;11.348;2022-07-04T06:50:48;2.67;;;2.20;;
1603;SDS011;795;49.296;11.348;2022-07-04T06:53:15;2.57;;;2.27;;
1603;SDS011;795;49.296;11.348;2022-07-04T06:55:42;2.83;;;2.53;;
1603;SDS011;795;49.296;11.348;2022-07-04T06:58:10;5.93;;;2.47;;
1603;SDS011;795;49.296;11.348;2022-07-04T07:00:38;4.57;;;2.70;;
1603;SDS011;795;49.296;11.348;2022-07-04T07:03:07;3.20;;;2.67;;
1603;SDS011;795;49.296;11.348;2022-07-04T07:05:34;3.60;;;2.77;;
1603;SDS011;795;49.296;11.348;2022-07-04T07:08:23;2.87;;;2.67;;
1603;SDS011;795;49.296;11.348;2022-07-04T07:10:50;13.23;;;2.90;;
1603;SDS011;795;49.296;11.348;2022-07-04T07:13:17;3.10;;;2.90;;
1603;SDS011;795;49.296;11.348;2022-07-04T07:15:44;3.20;;;2.90;;
1603;SDS011;795;49.296;11.348;2022-07-04T07:18:11;3.40;;;3.03;;
1603;SDS011;795;49.296;11.348;2022-07-04T07:20:38;7.70;;;2.63;;
1603;SDS011;795;49.296;11.348;2022-07-04T07:23:05;5.13;;;2.80;;
1603;SDS011;795;49.296;11.348;2022-07-04T07:25:32;2.63;;;2.43;;
1603;SDS011;795;49.296;11.348;2022-07-04T07:27:59;2.77;;;2.57;;
1603;SDS011;795;49.296;11.348;2022-07-04T07:30:26;2.40;;;2.20;;
1603;SDS011;795;49.296;11.348;2022-07-04T07:32:53;4.97;;;2.23;;
1603;SDS011;795;49.296;11.348;2022-07-04T07:35:20;2.70;;;2.00;;
1603;SDS011;795;49.296;11.348;2022-07-04T07:37:48;4.27;;;2.23;;
1603;SDS011;795;49.296;11.348;2022-07-04T07:40:15;1.80;;;1.70;;
1603;SDS011;795;49.296;11.348;2022-07-04T07:42:42;2.43;;;2.23;;
1603;SDS011;795;49.296;11.348;2022-07-04T07:45:09;8.33;;;2.63;;
1603;SDS011;795;49.296;11.348;2022-07-04T07:47:36;2.23;;;2.03;;
1603;SDS011;795;49.296;11.348;2022-07-04T07:50:03;2.27;;;2.00;;
1603;SDS011;795;49.296;11.348;2022-07-04T07:52:31;2.87;;;2.20;;
1603;SDS011;795;49.296;11.348;2022-07-04T07:54:59;2.60;;;2.40;;
1603;SDS011;795;49.296;11.348;2022-07-04T07:57:27;3.10;;;2.20;;
1603;SDS011;795;49.296;11.348;2022-07-04T07:59:55;7.30;;;2.30;;
1603;SDS011;795;49.296;11.348;2022-07-04T08:03:59;6.50;;;2.40;;
1603;SDS011;795;49.296;11.348;2022-07-04T08:06:48;2.47;;;2.27;;
1603;SDS011;795;49.296;11.348;2022-07-04T08:09:35;3.50;;;2.20;;
1603;SDS011;795;49.296;11.348;2022-07-04T08:12:04;6.50;;;3.20;;
1603;SDS011;795;49.296;11.348;2022-07-04T08:14:33;5.90;;;2.50;;
1603;SDS011;795;49.296;11.348;2022-07-04T08:17:01;3.70;;;2.40;;
1603;SDS011;795;49.296;11.348;2022-07-04T08:19:31;2.80;;;2.60;;
1603;SDS011;795;49.296;11.348;2022-07-04T08:21:58;3.67;;;2.33;;
1603;SDS011;795;49.296;11.348;2022-07-04T08:24:42;2.03;;;1.93;;
1603;SDS011;795;49.296;11.348;2022-07-04T08:27:10;2.60;;;1.90;;
1603;SDS011;795;49.296;11.348;2022-07-04T08:29:39;3.23;;;2.10;;
1603;SDS011;795;49.296;11.348;2022-07-04T08:32:07;2.20;;;2.00;;
1603;SDS011;795;49.296;11.348;2022-07-04T08:34:34;4.67;;;2.20;;
1603;SDS011;795;49.296;11.348;2022-07-04T08:37:02;2.77;;;2.30;;
1603;SDS011;795;49.296;11.348;2022-07-04T08:39:29;5.23;;;2.40;;
1603;SDS011;795;49.296;11.348;2022-07-04T08:41:59;2.47;;;1.90;;
1603;SDS011;795;49.296;11.348;2022-07-04T08:44:39;3.47;;;2.00;;
1603;SDS011;795;49.296;11.348;2022-07-04T08:47:15;4.43;;;2.17;;
1603;SDS011;795;49.296;11.348;2022-07-04T08:50:08;2.40;;;2.20;;
1603;SDS011;795;49.296;11.348;2022-07-04T08:52:42;3.43;;;2.30;;
1603;SDS011;795;49.296;11.348;2022-07-04T08:55:19;4.17;;;2.07;;
1603;SDS011;795;49.296;11.348;2022-07-04T08:58:07;4.53;;;2.43;;
1603;SDS011;795;49.296;11.348;2022-07-04T09:01:02;4.63;;;2.27;;
1603;SDS011;795;49.296;11.348;2022-07-04T09:03:41;5.17;;;2.50;;
1603;SDS011;795;49.296;11.348;2022-07-04T09:06:11;1.83;;;1.60;;
1603;SDS011;795;49.296;11.348;2022-07-04T09:08:39;4.43;;;2.50;;
1603;SDS011;795;49.296;11.348;2022-07-04T09:11:07;2.50;;;2.30;;
1603;SDS011;795;49.296;11.348;2022-07-04T09:13:34;4.73;;;2.23;;
1603;SDS011;795;49.296;11.348;2022-07-04T09:16:01;3.40;;;2.30;;
1603;SDS011;795;49.296;11.348;2022-07-04T09:18:29;2.03;;;1.83;;
1603;SDS011;795;49.296;11.348;2022-07-04T09:21:02;5.10;;;2.10;;
1603;SDS011;795;49.296;11.348;2022-07-04T09:23:38;3.00;;;2.13;;
1603;SDS011;795;49.296;11.348;2022-07-04T09:28:43;2.47;;;1.63;;
1603;SDS011;795;49.296;11.348;2022-07-04T09:31:29;3.23;;;2.10;;
1603;SDS011;795;49.296;11.348;2022-07-04T09:33:58;2.40;;;2.10;;
1603;SDS011;795;49.296;11.348;2022-07-04T09:36:30;3.03;;;2.20;;
1603;SDS011;795;49.296;11.348;2022-07-04T09:41:51;7.60;;;2.40;;
1603;SDS011;795;49.296;11.348;2022-07-04T09:47:03;2.10;;;1.97;;
1603;SDS011;795;49.296;11.348;2022-07-04T09:49:58;4.77;;;2.20;;
1603;SDS011;795;49.296;11.348;2022-07-04T09:55:21;2.60;;;1.80;;
1603;SDS011;795;49.296;11.348;2022-07-04T09:58:04;2.40;;;2.20;;
1603;SDS011;795;49.296;11.348;2022-07-04T10:00:43;5.60;;;1.90;;
1603;SDS011;795;49.296;11.348;2022-07-04T10:06:02;4.53;;;2.10;;
1603;SDS011;795;49.296;11.348;2022-07-04T10:08:42;5.70;;;2.23;;
1603;SDS011;795;49.296;11.348;2022-07-04T10:11:11;3.70;;;2.30;;
1603;SDS011;795;49.296;11.348;2022-07-04T10:13:44;3.50;;;1.80;;
1603;SDS011;795;49.296;11.348;2022-07-04T10:16:15;3.43;;;1.97;;
1603;SDS011;795;49.296;11.348;2022-07-04T10:18:44;3.10;;;1.93;;
1603;SDS011;795;49.296;11.348;2022-07-04T10:21:12;1.90;;;1.60;;
1603;SDS011;795;49.296;11.348;2022-07-04T10:23:41;2.87;;;1.87;;
1603;SDS011;795;49.296;11.348;2022-07-04T10:26:11;2.60;;;2.40;;
1603;SDS011;795;49.296;11.348;2022-07-04T10:28:39;2.53;;;1.83;;
1603;SDS011;795;49.296;11.348;2022-07-04T10:31:14;3.43;;;2.37;;
1603;SDS011;795;49.296;11.348;2022-07-04T10:33:44;1.83;;;1.60;;
1603;SDS011;795;49.296;11.348;2022-07-04T10:38:47;2.70;;;1.53;;
1603;SDS011;795;49.296;11.348;2022-07-04T10:41:21;3.83;;;1.93;;
1603;SDS011;795;49.296;11.348;2022-07-04T10:43:59;2.03;;;1.83;;
1603;SDS011;795;49.296;11.348;2022-07-04T10:46:36;3.30;;;2.20;;
1603;SDS011;795;49.296;11.348;2022-07-04T10:49:23;6.43;;;1.50;;
1603;SDS011;795;49.296;11.348;2022-07-04T10:51:55;1.80;;;1.70;;
1603;SDS011;795;49.296;11.348;2022-07-04T10:54:42;3.03;;;1.87;;
1603;SDS011;795;49.296;11.348;2022-07-04T11:02:28;3.30;;;1.87;;
1603;SDS011;795;49.296;11.348;2022-07-04T11:13:05;3.33;;;1.93;;
1603;SDS011;795;49.296;11.348;2022-07-04T11:18:08;2.60;;;2.20;;
1603;SDS011;795;49.296;11.348;2022-07-04T11:20:42;2.03;;;1.73;;
1603;SDS011;795;49.296;11.348;2022-07-04T11:23:15;3.70;;;1.63;;
1603;SDS011;795;49.296;11.348;2022-07-04T11:25:47;2.97;;;1.97;;
1603;SDS011;795;49.296;11.348;2022-07-04T11:28:26;2.10;;;1.53;;
1603;SDS011;795;49.296;11.348;2022-07-04T11:31:09;2.33;;;1.30;;
1603;SDS011;795;49.296;11.348;2022-07-04T11:33:37;3.47;;;2.03;;
1603;SDS011;795;49.296;11.348;2022-07-04T11:36:13;2.23;;;1.73;;
1603;SDS011;795;49.296;11.348;2022-07-04T11:41:27;7.47;;;1.77;;
1603;SDS011;795;49.296;11.348;2022-07-04T11:44:26;2.20;;;1.67;;
1603;SDS011;795;49.296;11.348;2022-07-04T11:47:21;2.93;;;2.10;;
1603;SDS011;795;49.296;11.348;2022-07-04T11:49:59;1.70;;;1.60;;
1603;SDS011;795;49.296;11.348;2022-07-04T11:52:29;2.67;;;1.60;;
1603;SDS011;795;49.296;11.348;2022-07-04T11:55:27;7.23;;;1.60;;
1603;SDS011;795;49.296;11.348;2022-07-04T11:57:54;1.83;;;1.47;;
1603;SDS011;795;49.296;11.348;2022-07-04T12:00:27;3.40;;;2.23;;
1603;SDS011;795;49.296;11.348;2022-07-04T12:03:01;1.80;;;1.70;;
1603;SDS011;795;49.296;11.348;2022-07-04T12:05:28;4.80;;;2.23;;
1603;SDS011;795;49.296;11.348;2022-07-04T12:07:57;3.27;;;1.57;;
1603;SDS011;795;49.296;11.348;2022-07-04T12:10:46;3.87;;;1.97;;
1603;SDS011;795;49.296;11.348;2022-07-04T12:13:16;3.57;;;1.73;;
1603;SDS011;795;49.296;11.348;2022-07-04T12:15:45;2.13;;;1.53;;
1603;SDS011;795;49.296;11.348;2022-07-04T12:18:16;9.20;;;2.20;;
1603;SDS011;795;49.296;11.348;2022-07-04T12:20:56;4.10;;;2.87;;
1603;SDS011;795;49.296;11.348;2022-07-04T12:23:50;2.37;;;1.50;;
1603;SDS011;795;49.296;11.348;2022-07-04T12:26:43;2.03;;;1.83;;
1603;SDS011;795;49.296;11.348;2022-07-04T12:29:24;3.33;;;1.60;;
1603;SDS011;795;49.296;11.348;2022-07-04T12:31:57;2.27;;;1.90;;
1603;SDS011;795;49.296;11.348;2022-07-04T12:34:25;4.73;;;1.90;;
1603;SDS011;795;49.296;11.348;2022-07-04T12:36:55;4.73;;;1.60;;
1603;SDS011;795;49.296;11.348;2022-07-04T12:39:35;1.60;;;1.50;;
1603;SDS011;795;49.296;11.348;2022-07-04T12:42:08;3.30;;;1.40;;
1603;SDS011;795;49.296;11.348;2022-07-04T12:44:45;2.10;;;1.90;;
1603;SDS011;795;49.296;11.348;2022-07-04T12:47:16;1.87;;;1.70;;
1603;SDS011;795;49.296;11.348;2022-07-04T12:49:58;1.30;;;1.20;;
1603;SDS011;795;49.296;11.348;2022-07-04T12:52:28;2.10;;;1.90;;
1603;SDS011;795;49.296;11.348;2022-07-04T12:55:03;2.03;;;1.83;;
1603;SDS011;795;49.296;11.348;2022-07-04T12:57:38;3.17;;;1.60;;
1603;SDS011;795;49.296;11.348;2022-07-04T13:00:05;4.50;;;1.43;;
1603;SDS011;795;49.296;11.348;2022-07-04T13:02:53;1.50;;;1.40;;
1603;SDS011;795;49.296;11.348;2022-07-04T13:05:20;2.83;;;1.70;;
1603;SDS011;795;49.296;11.348;2022-07-04T13:07:48;2.60;;;1.27;;
1603;SDS011;795;49.296;11.348;2022-07-04T13:10:15;4.20;;;1.80;;
1603;SDS011;795;49.296;11.348;2022-07-04T13:12:42;2.60;;;1.73;;
1603;SDS011;795;49.296;11.348;2022-07-04T13:15:09;2.00;;;1.53;;
1603;SDS011;795;49.296;11.348;2022-07-04T13:17:37;2.80;;;1.60;;
1603;SDS011;795;49.296;11.348;2022-07-04T13:20:05;1.77;;;1.60;;
1603;SDS011;795;49.296;11.348;2022-07-04T13:22:33;3.50;;;2.10;;
1603;SDS011;795;49.296;11.348;2022-07-04T13:25:00;4.27;;;1.97;;
1603;SDS011;795;49.296;11.348;2022-07-04T13:27:29;6.20;;;1.97;;
1603;SDS011;795;49.296;11.348;2022-07-04T13:29:57;2.00;;;1.90;;
1603;SDS011;795;49.296;11.348;2022-07-04T13:32:24;2.10;;;2.00;;
1603;SDS011;795;49.296;11.348;2022-07-04T13:34:51;1.60;;;1.50;;
1603;SDS011;795;49.296;11.348;2022-07-04T13:37:18;2.40;;;1.90;;
1603;SDS011;795;49.296;11.348;2022-07-04T13:39:45;2.33;;;1.67;;
1603;SDS011;795;49.296;11.348;2022-07-04T13:42:17;3.93;;;1.97;;
1603;SDS011;795;49.296;11.348;2022-07-04T13:45:07;3.43;;;1.57;;
1603;SDS011;795;49.296;11.348;2022-07-04T13:47:35;4.43;;;2.00;;
1603;SDS011;795;49.296;11.348;2022-07-04T13:50:02;2.60;;;1.80;;
1603;SDS011;795;49.296;11.348;2022-07-04T13:52:30;2.20;;;1.83;;
1603;SDS011;795;49.296;11.348;2022-07-04T13:54:58;2.40;;;1.70;;
1603;SDS011;795;49.296;11.348;2022-07-04T13:57:25;2.00;;;1.40;;
1603;SDS011;795;49.296;11.348;2022-07-04T13:59:52;5.97;;;1.80;;
1603;SDS011;795;49.296;11.348;2022-07-04T14:02:19;3.33;;;1.90;;
1603;SDS011;795;49.296;11.348;2022-07-04T14:04:46;1.40;;;1.30;;
1603;SDS011;795;49.296;11.348;2022-07-04T14:07:13;2.80;;;1.50;;
1603;SDS011;795;49.296;11.348;2022-07-04T14:09:45;6.63;;;2.10;;
1603;SDS011;795;49.296;11.348;2022-07-04T14:12:13;2.97;;;1.70;;
1603;SDS011;795;49.296;11.348;2022-07-04T14:14:41;1.67;;;1.40;;
1603;SDS011;795;49.296;11.348;2022-07-04T14:17:10;3.10;;;1.70;;
1603;SDS011;795;49.296;11.348;2022-07-04T14:19:57;3.77;;;1.40;;
1603;SDS011;795;49.296;11.348;2022-07-04T14:22:24;2.50;;;1.77;;
1603;SDS011;795;49.296;11.348;2022-07-04T14:24:52;4.10;;;1.87;;
1603;SDS011;795;49.296;11.348;2022-07-04T14:27:19;4.60;;;1.67;;
1603;SDS011;795;49.296;11.348;2022-07-04T14:29:46;2.20;;;1.63;;
1603;SDS011;795;49.296;11.348;2022-07-04T14:32:14;2.60;;;1.47;;
1603;SDS011;795;49.296;11.348;2022-07-04T14:34:41;4.83;;;1.50;;
1603;SDS011;795;49.296;11.348;2022-07-04T14:37:08;2.13;;;1.90;;
1603;SDS011;795;49.296;11.348;2022-07-04T14:39:35;2.53;;;1.90;;
1603;SDS011;795;49.296;11.348;2022-07-04T14:42:03;2.27;;;1.60;;
1603;SDS011;795;49.296;11.348;2022-07-04T14:44:30;5.70;;;1.60;;
1603;SDS011;795;49.296;11.348;2022-07-04T14:47:02;2.23;;;1.47;;
1603;SDS011;795;49.296;11.348;2022-07-04T14:49:37;3.83;;;1.90;;
1603;SDS011;795;49.296;11.348;2022-07-04T14:52:05;1.90;;;1.50;;
1603;SDS011;795;49.296;11.348;2022-07-04T14:54:33;2.20;;;1.37;;
1603;SDS011;795;49.296;11.348;2022-07-04T14:57:00;3.47;;;1.87;;
1603;SDS011;795;49.296;11.348;2022-07-04T14:59:27;1.80;;;1.20;;
1603;SDS011;795;49.296;11.348;2022-07-04T15:01:54;3.10;;;1.20;;
1603;SDS011;795;49.296;11.348;2022-07-04T15:04:23;8.13;;;1.43;;
1603;SDS011;795;49.296;11.348;2022-07-04T15:06:50;2.40;;;1.50;;
1603;SDS011;795;49.296;11.348;2022-07-04T15:09:17;1.90;;;1.27;;
1603;SDS011;795;49.296;11.348;2022-07-04T15:11:44;3.30;;;1.57;;
1603;SDS011;795;49.296;11.348;2022-07-04T15:14:15;2.23;;;1.70;;
1603;SDS011;795;49.296;11.348;2022-07-04T15:16:42;2.90;;;1.80;;
1603;SDS011;795;49.296;11.348;2022-07-04T15:19:09;2.40;;;1.47;;
1603;SDS011;795;49.296;11.348;2022-07-04T15:21:36;1.87;;;1.50;;
1603;SDS011;795;49.296;11.348;2022-07-04T15:24:22;3.20;;;1.37;;
1603;SDS011;795;49.296;11.348;2022-07-04T15:26:50;3.13;;;2.17;;
1603;SDS011;795;49.296;11.348;2022-07-04T15:29:18;2.80;;;1.90;;
1603;SDS011;795;49.296;11.348;2022-07-04T15:31:51;2.50;;;1.40;;
1603;SDS011;795;49.296;11.348;2022-07-04T15:34:18;1.30;;;1.10;;
1603;SDS011;795;49.296;11.348;2022-07-04T15:36:46;1.77;;;1.27;;
1603;SDS011;795;49.296;11.348;2022-07-04T15:39:14;1.33;;;1.20;;
1603;SDS011;795;49.296;11.348;2022-07-04T15:41:43;4.07;;;1.70;;
1603;SDS011;795;49.296;11.348;2022-07-04T15:44:11;2.70;;;1.63;;
1603;SDS011;795;49.296;11.348;2022-07-04T15:46:39;3.13;;;1.30;;
1603;SDS011;795;49.296;11.348;2022-07-04T15:49:25;1.77;;;1.10;;
1603;SDS011;795;49.296;11.348;2022-07-04T15:51:54;1.30;;;1.20;;
1603;SDS011;795;49.296;11.348;2022-07-04T15:54:21;2.17;;;1.53;;
1603;SDS011;795;49.296;11.348;2022-07-04T15:56:48;3.00;;;1.40;;
1603;SDS011;795;49.296;11.348;2022-07-04T15:59:15;1.30;;;1.13;;
1603;SDS011;795;49.296;11.348;2022-07-04T16:01:42;1.97;;;1.77;;
1603;SDS011;795;49.296;11.348;2022-07-04T16:04:10;4.60;;;2.43;;
1603;SDS011;795;49.296;11.348;2022-07-04T16:06:37;1.70;;;1.60;;
1603;SDS011;795;49.296;11.348;2022-07-04T16:09:06;3.33;;;1.73;;